Saint Marys City, Maryland
Current Conditions -  °F | °C
As of 10:53 AM on Friday 21 Nov 2014 (Local Time) from KNUI Reporting Station
Clear Clear  
Wind Chill: 28°   Ceiling: Unl
Heat Index: 37°   Visibility: 10mi
Dew Point:   Wind: 15mph
Humidity: 28%   Direction: 300°WNW
Pressure: 30.44"   Gusts: 22mph
Location:  38.19°N, 76.43°W
Report Text: KNUI 211553Z AUTO 30013G19KT 10SM CLR 03/M14 A3044 RMK AO2 SLP308 T00281144
Loading
Personal Weather Stations






























Interactive Weather Map New forecast layout! Learn more

10-Day Weather Forecast

Advertisements
Track Severe Weather on mobile